This is the latest recevied weather packets stored in our database for station/object N7WSS. If no packets are shown the sender has not sent any weather packets the latest 10 day(s).
| Time | Temp. | Humidity | Pressure | Rain* | Wind** | Luminosity | Snow |
|---|---|---|---|---|---|---|---|
| 1787581118 | 27.78° C | 47% | 1017.8 hPa | 0 mm | - | - | - |
| 1787580814 | 27.22° C | 49% | 1017.7 hPa | 0 mm | - | - | - |
| 1787580511 | 26.11° C | 51% | 1017.6 hPa | 0 mm | - | - | - |
| 1787580210 | 25.56° C | 52% | 1017.7 hPa | 0 mm | - | - | - |
| 1787579906 | 25° C | 53% | 1017.4 hPa | 0 mm | - | - | - |
| 1787579606 | 24.44° C | 53% | 1017.2 hPa | 0 mm | - | - | - |
| 1787579301 | 24.44° C | 54% | 1017.1 hPa | 0 mm | - | - | - |
| 1787578996 | 23.89° C | 55% | 1016.9 hPa | 0 mm | - | - | - |
| 1787578693 | 23.89° C | 55% | 1016.7 hPa | 0 mm | - | - | - |
| 1787578393 | 23.89° C | 55% | 1016.8 hPa | 0 mm | - | - | - |
| 1787578092 | 23.33° C | 56% | 1016.4 hPa | 0 mm | - | - | - |
| 1787577787 | 22.78° C | 57% | 1016.5 hPa | 0 mm | - | - | - |
| 1787577483 | 22.22° C | 59% | 1016.3 hPa | 0 mm | - | - | - |
| 1787577179 | 22.22° C | 62% | 1016.3 hPa | 0 mm | - | - | - |
| 1787576876 | 22.22° C | 60% | 1016.2 hPa | 0 mm | - | - | - |
| 1787576575 | 22.22° C | 60% | 1016 hPa | 0 mm | - | - | - |
| 1787576272 | 22.78° C | 59% | 1016.1 hPa | 0 mm | - | - | - |
| 1787575967 | 22.78° C | 58% | 1016.1 hPa | 0 mm | - | - | - |
| 1787575668 | 22.78° C | 58% | 1016 hPa | 0 mm | - | - | - |
| 1787575363 | 22.78° C | 57% | 1015.9 hPa | 0 mm | - | - | - |
| 1787575058 | 22.78° C | 57% | 1015.6 hPa | 0 mm | - | - | - |
| 1787574753 | 22.78° C | 58% | 1015.9 hPa | 0 mm | - | - | - |
| 1787574448 | 22.78° C | 58% | 1015.7 hPa | 0 mm | - | - | - |
| 1787574147 | 23.33° C | 56% | 1016 hPa | 0 mm | - | - | - |
| 1787573842 | 23.33° C | 56% | 1015.9 hPa | 0 mm | - | - | - |
* Rain latest hour (hover to see other rain measurements)
** Current wind speed in m/s (hover to see current wind gust speed)